Shindler, South Dakota
Current Conditions -  °F | °C
As of 5:56 PM on Friday 19 Dec 2014 (Local Time) from KFSD Reporting Station
Overcast Overcast  
Wind Chill: 22°   Ceiling: 800
Heat Index: 31°   Visibility: 9mi
Dew Point: 28°   Wind: 12mph
Humidity: 89%   Direction: 180°S
Pressure: 30.09"   Gusts: NA
Location:  43.5199°N, 96.7933°W
Report Text: KFSD 192356Z 18010KT 9SM OVC008 M01/M02 A3009 RMK AO2 SLP206 4/002 T10061022 11006 21011 50001
Loading
Personal Weather Stations






























Interactive Weather Map New forecast layout! Learn more

10-Day Weather Forecast

Advertisements
Track Severe Weather on mobile